Time,TemperatureF,DewpointF,PressureIn,WindDirection,WindDirectionDegrees,WindSpeedMPH,WindSpeedGustMPH,Humidity,HourlyPrecipIn,Conditions,Clouds,dailyrainin,SoftwareType,DateUTC
2013-02-21 00:02:00,25.5,20.5,29.92,SE,135,0.0,0.0,81,0.00,,,0.00,LWC V1.12 B30,2013-02-21 08:02:00,
2013-02-21 00:07:00,25.5,20.5,29.92,SE,135,0.0,0.0,81,0.00,,,0.00,LWC V1.12 B30,2013-02-21 08:07:00,
2013-02-21 00:12:00,25.3,20.3,29.92,SE,135,0.0,0.0,81,0.00,,,0.00,LWC V1.12 B30,2013-02-21 08:12:00,
2013-02-21 00:17:00,25.3,20.3,29.92,SE,135,0.0,0.0,81,0.00,,,0.00,LWC V1.12 B30,2013-02-21 08:17:00,
2013-02-21 00:22:00,25.2,20.2,29.92,SE,135,1.3,2.0,81,0.00,,,0.00,LWC V1.12 B30,2013-02-21 08:22:00,
2013-02-21 00:27:00,25.0,20.0,29.92,SE,135,0.0,0.0,81,0.00,,,0.00,LWC V1.12 B30,2013-02-21 08:27:00,
2013-02-21 00:32:00,25.0,20.0,29.92,SE,135,0.0,0.0,81,0.00,,,0.00,LWC V1.12 B30,2013-02-21 08:32:00,
2013-02-21 00:37:00,25.0,20.0,29.92,SE,135,0.0,0.0,81,0.00,,,0.00,LWC V1.12 B30,2013-02-21 08:37:00,
2013-02-21 00:42:00,24.6,19.7,29.92,SE,135,0.0,0.0,81,0.00,,,0.00,LWC V1.12 B30,2013-02-21 08:42:00,
2013-02-21 00:47:00,24.6,19.7,29.92,SE,135,0.0,0.0,81,0.00,,,0.00,LWC V1.12 B30,2013-02-21 08:47:00,
2013-02-21 00:52:00,24.6,19.7,29.92,SE,135,0.0,0.0,81,0.00,,,0.00,LWC V1.12 B30,2013-02-21 08:52:00,
2013-02-21 00:57:00,24.6,19.9,29.92,SE,135,0.0,0.0,82,0.00,,,0.00,LWC V1.12 B30,2013-02-21 08:57:00,
2013-02-21 01:02:00,24.6,19.9,29.92,SE,135,0.0,0.0,82,0.00,,,0.00,LWC V1.12 B30,2013-02-21 09:02:00,
2013-02-21 01:07:00,24.6,19.9,29.92,SE,135,0.0,0.0,82,0.00,,,0.00,LWC V1.12 B30,2013-02-21 09:07:00,
2013-02-21 01:12:00,25.0,20.3,29.92,SE,135,0.0,0.0,82,0.00,,,0.00,LWC V1.12 B30,2013-02-21 09:12:00,
2013-02-21 01:17:00,25.0,20.3,29.91,SE,135,0.0,0.0,82,0.00,,,0.00,LWC V1.12 B30,2013-02-21 09:17:00,
2013-02-21 01:22:00,25.2,20.4,29.91,SE,135,0.0,0.0,82,0.00,,,0.00,LWC V1.12 B30,2013-02-21 09:22:00,
2013-02-21 01:27:00,25.3,20.6,29.91,SE,135,0.0,0.0,82,0.00,,,0.00,LWC V1.12 B30,2013-02-21 09:27:00,
2013-02-21 01:32:00,25.3,20.6,29.91,SE,135,0.0,0.0,82,0.00,,,0.00,LWC V1.12 B30,2013-02-21 09:32:00,
2013-02-21 01:37:00,25.3,20.6,29.91,SE,135,0.0,0.0,82,0.00,,,0.00,LWC V1.12 B30,2013-02-21 09:37:00,
2013-02-21 01:42:00,25.3,20.6,29.91,SE,135,0.0,0.0,82,0.00,,,0.00,LWC V1.12 B30,2013-02-21 09:42:00,
2013-02-21 01:47:00,25.5,20.8,29.92,SE,135,0.0,0.0,82,0.00,,,0.00,LWC V1.12 B30,2013-02-21 09:47:00,
2013-02-21 01:52:00,25.5,20.8,29.91,SE,135,0.0,0.0,82,0.00,,,0.00,LWC V1.12 B30,2013-02-21 09:52:00,
2013-02-21 01:58:00,25.5,20.8,29.91,SE,135,0.0,0.0,82,0.00,,,0.00,LWC V1.12 B30,2013-02-21 09:58:00,
2013-02-21 02:03:00,25.7,20.9,29.91,SE,135,0.0,0.0,82,0.00,,,0.00,LWC V1.12 B30,2013-02-21 10:03:00,
2013-02-21 02:08:00,25.7,20.9,29.91,SE,135,0.0,0.0,82,0.00,,,0.00,LWC V1.12 B30,2013-02-21 10:08:00,
2013-02-21 02:13:00,25.9,21.4,29.91,SE,135,0.0,0.0,83,0.00,,,0.00,LWC V1.12 B30,2013-02-21 10:13:00,
2013-02-21 02:18:00,26.1,21.6,29.91,SE,135,0.0,0.0,83,0.00,,,0.00,LWC V1.12 B30,2013-02-21 10:18:00,
2013-02-21 02:23:00,26.1,21.6,29.91,SE,135,0.0,0.0,83,0.00,,,0.00,LWC V1.12 B30,2013-02-21 10:23:00,
2013-02-21 02:28:00,26.2,21.7,29.91,SE,135,0.0,0.0,83,0.00,,,0.00,LWC V1.12 B30,2013-02-21 10:28:00,
2013-02-21 02:33:00,26.4,21.9,29.91,SE,135,0.0,0.0,83,0.00,,,0.00,LWC V1.12 B30,2013-02-21 10:33:00,
2013-02-21 02:38:00,26.4,21.9,29.90,SE,135,0.0,0.0,83,0.00,,,0.00,LWC V1.12 B30,2013-02-21 10:38:00,
2013-02-21 02:43:00,26.4,21.9,29.91,SE,135,0.0,0.0,83,0.00,,,0.00,LWC V1.12 B30,2013-02-21 10:43:00,
2013-02-21 02:48:00,26.4,21.9,29.90,SE,135,0.0,0.0,83,0.00,,,0.00,LWC V1.12 B30,2013-02-21 10:48:00,
2013-02-21 02:53:00,26.6,22.1,29.90,SSW,202,0.0,0.0,83,0.00,,,0.00,LWC V1.12 B30,2013-02-21 10:53:00,
2013-02-21 02:58:00,26.6,22.1,29.90,SSW,202,0.0,0.0,83,0.00,,,0.00,LWC V1.12 B30,2013-02-21 10:58:00,
2013-02-21 03:03:00,26.6,22.1,29.90,SSW,202,0.0,0.0,83,0.00,,,0.00,LWC V1.12 B30,2013-02-21 11:03:00,
2013-02-21 03:08:00,26.8,22.2,29.91,SSW,202,0.0,0.0,83,0.00,,,0.00,LWC V1.12 B30,2013-02-21 11:08:00,
2013-02-21 03:13:00,26.8,22.2,29.90,SSW,202,0.0,0.0,83,0.00,,,0.00,LWC V1.12 B30,2013-02-21 11:13:00,
2013-02-21 03:18:00,26.8,22.2,29.90,SSW,202,0.0,0.0,83,0.00,,,0.00,LWC V1.12 B30,2013-02-21 11:18:00,
2013-02-21 03:23:00,26.8,22.2,29.89,SSW,202,0.0,0.0,83,0.00,,,0.00,LWC V1.12 B30,2013-02-21 11:23:00,
2013-02-21 03:28:00,27.0,22.4,29.90,SSW,202,0.0,0.0,83,0.00,,,0.00,LWC V1.12 B30,2013-02-21 11:28:00,
2013-02-21 03:33:00,27.0,22.4,29.91,WSW,247,0.0,0.0,83,0.00,,,0.00,LWC V1.12 B30,2013-02-21 11:33:00,
2013-02-21 03:38:00,27.0,22.4,29.90,WSW,247,0.0,0.0,83,0.00,,,0.00,LWC V1.12 B30,2013-02-21 11:38:00,
2013-02-21 03:43:00,27.0,22.4,29.90,WSW,247,0.0,0.0,83,0.00,,,0.00,LWC V1.12 B30,2013-02-21 11:43:00,
2013-02-21 03:48:00,27.0,22.6,29.90,WSW,247,0.0,0.0,83,0.00,,,0.00,LWC V1.12 B30,2013-02-21 11:48:00,
2013-02-21 03:53:00,27.1,22.9,29.90,SW,225,0.0,0.0,84,0.00,,,0.00,LWC V1.12 B30,2013-02-21 11:53:00,
2013-02-21 03:58:00,27.0,22.7,29.90,SW,225,0.0,0.0,84,0.00,,,0.00,LWC V1.12 B30,2013-02-21 11:58:00,
2013-02-21 04:03:00,27.1,22.6,29.91,SW,225,0.0,0.0,83,0.00,,,0.00,LWC V1.12 B30,2013-02-21 12:03:00,
2013-02-21 04:08:00,27.1,22.9,29.91,SW,225,0.0,0.0,84,0.00,,,0.00,LWC V1.12 B30,2013-02-21 12:08:00,
2013-02-21 04:14:00,27.1,22.6,29.90,SW,225,0.0,0.0,83,0.00,,,0.00,LWC V1.12 B30,2013-02-21 12:14:00,
2013-02-21 04:19:00,27.1,22.6,29.90,SSW,202,0.0,0.0,83,0.00,,,0.00,LWC V1.12 B30,2013-02-21 12:19:00,
2013-02-21 04:24:00,27.1,22.6,29.90,SW,225,0.0,0.0,83,0.00,,,0.00,LWC V1.12 B30,2013-02-21 12:24:00,
2013-02-21 04:29:00,27.1,22.6,29.90,SW,225,0.0,0.0,83,0.00,,,0.00,LWC V1.12 B30,2013-02-21 12:29:00,
2013-02-21 04:34:00,27.1,22.6,29.90,SSW,202,0.0,0.0,83,0.00,,,0.00,LWC V1.12 B30,2013-02-21 12:34:00,
2013-02-21 04:39:00,27.1,22.6,29.90,SSW,202,0.0,0.0,83,0.00,,,0.00,LWC V1.12 B30,2013-02-21 12:39:00,
2013-02-21 04:44:00,27.1,22.6,29.89,SSW,202,0.0,0.0,83,0.00,,,0.00,LWC V1.12 B30,2013-02-21 12:44:00,
2013-02-21 04:49:00,27.1,22.6,29.89,SW,225,0.0,0.0,83,0.00,,,0.00,LWC V1.12 B30,2013-02-21 12:49:00,
2013-02-21 04:54:00,27.1,22.6,29.90,SW,225,0.0,0.0,83,0.00,,,0.00,LWC V1.12 B30,2013-02-21 12:54:00,
2013-02-21 04:59:00,26.8,22.2,29.90,SSW,202,0.0,0.0,83,0.00,,,0.00,LWC V1.12 B30,2013-02-21 12:59:00,
2013-02-21 05:04:00,26.6,22.1,29.89,South,180,0.0,0.0,83,0.00,,,0.00,LWC V1.12 B30,2013-02-21 13:04:00,
2013-02-21 05:09:00,26.4,21.9,29.90,South,180,0.0,0.0,83,0.00,,,0.00,LWC V1.12 B30,2013-02-21 13:09:00,
2013-02-21 05:14:00,26.4,21.9,29.90,South,180,0.0,0.0,83,0.00,,,0.00,LWC V1.12 B30,2013-02-21 13:14:00,
2013-02-21 05:19:00,26.2,21.7,29.90,South,180,0.0,0.0,83,0.00,,,0.00,LWC V1.12 B30,2013-02-21 13:19:00,
2013-02-21 05:24:00,26.2,21.7,29.91,South,180,0.0,0.0,83,0.00,,,0.00,LWC V1.12 B30,2013-02-21 13:24:00,
2013-02-21 05:29:00,26.1,21.8,29.90,South,180,0.0,0.0,84,0.00,,,0.00,LWC V1.12 B30,2013-02-21 13:29:00,
2013-02-21 05:34:00,26.1,21.8,29.90,SSE,157,0.0,0.0,84,0.00,,,0.00,LWC V1.12 B30,2013-02-21 13:34:00,
2013-02-21 05:39:00,26.1,21.8,29.90,NNE,22,0.0,0.0,84,0.00,,,0.00,LWC V1.12 B30,2013-02-21 13:39:00,
2013-02-21 05:44:00,25.9,21.7,29.90,NNE,22,0.0,0.0,84,0.00,,,0.00,LWC V1.12 B30,2013-02-21 13:44:00,
2013-02-21 05:49:00,25.9,21.7,29.90,SE,135,0.0,0.0,84,0.00,,,0.00,LWC V1.12 B30,2013-02-21 13:49:00,
2013-02-21 05:54:00,26.2,22.3,29.90,SE,135,0.0,2.5,85,0.00,,,0.00,LWC V1.12 B30,2013-02-21 13:54:00,
2013-02-21 06:01:00,26.4,22.5,29.91,South,180,4.2,4.2,85,0.00,,,0.00,LWC V1.12 B30,2013-02-21 14:01:00,
2013-02-21 06:06:00,27.0,23.0,29.91,SSE,157,4.2,4.2,85,0.00,,,0.00,LWC V1.12 B30,2013-02-21 14:06:00,
2013-02-21 06:11:00,27.7,24.0,29.91,SSE,157,0.0,4.9,86,0.00,,,0.00,LWC V1.12 B30,2013-02-21 14:11:00,
2013-02-21 06:16:00,28.2,24.5,29.91,SSE,157,12.5,12.5,86,0.00,,,0.00,LWC V1.12 B30,2013-02-21 14:16:00,
2013-02-21 06:21:00,28.6,25.1,29.90,SE,135,7.6,13.0,86,0.00,,,0.00,LWC V1.12 B30,2013-02-21 14:21:00,
2013-02-21 06:26:00,29.1,25.2,29.91,SSE,157,3.6,10.3,85,0.00,,,0.00,LWC V1.12 B30,2013-02-21 14:26:00,
2013-02-21 06:31:00,29.3,25.3,29.91,SE,135,7.2,8.1,85,0.00,,,0.00,LWC V1.12 B30,2013-02-21 14:31:00,
2013-02-21 06:36:00,29.5,25.5,29.91,SSE,157,9.2,11.9,85,0.00,,,0.00,LWC V1.12 B30,2013-02-21 14:36:00,
2013-02-21 06:41:00,29.8,25.6,29.92,South,180,5.8,11.6,84,0.00,,,0.00,LWC V1.12 B30,2013-02-21 14:41:00,
2013-02-21 06:46:00,30.0,25.8,29.92,SSE,157,4.7,5.1,84,0.00,,,0.00,LWC V1.12 B30,2013-02-21 14:46:00,
2013-02-21 06:51:00,30.0,25.8,29.92,SSE,157,8.3,10.1,84,0.00,,,0.00,LWC V1.12 B30,2013-02-21 14:51:00,
2013-02-21 06:56:00,30.0,25.5,29.92,South,180,9.4,11.4,83,0.00,,,0.00,LWC V1.12 B30,2013-02-21 14:56:00,
2013-02-21 07:01:00,30.2,25.7,29.92,South,180,9.2,11.2,83,0.00,,,0.00,LWC V1.12 B30,2013-02-21 15:01:00,
2013-02-21 07:06:00,30.4,25.8,29.92,SSE,157,6.5,9.4,83,0.00,,,0.00,LWC V1.12 B30,2013-02-21 15:06:00,
2013-02-21 07:11:00,30.4,25.8,29.92,SSE,157,5.1,12.7,83,0.00,,,0.00,LWC V1.12 B30,2013-02-21 15:11:00,
2013-02-21 07:16:00,30.6,26.0,29.92,East,90,8.1,13.6,83,0.00,,,0.00,LWC V1.12 B30,2013-02-21 15:16:00,
2013-02-21 07:22:00,30.7,26.2,29.92,SSE,157,6.3,12.1,83,0.00,,,0.00,LWC V1.12 B30,2013-02-21 15:22:00,
2013-02-21 07:27:00,30.7,26.2,29.93,South,180,5.8,13.0,83,0.00,,,0.00,LWC V1.12 B30,2013-02-21 15:27:00,
2013-02-21 07:32:00,30.9,26.4,29.93,SSE,157,8.5,17.2,83,0.00,,,0.00,LWC V1.12 B30,2013-02-21 15:32:00,
2013-02-21 07:37:00,30.9,26.4,29.94,South,180,6.0,10.7,83,0.00,,,0.00,LWC V1.12 B30,2013-02-21 15:37:00,
2013-02-21 07:42:00,31.3,26.7,29.93,SSE,157,2.7,7.6,83,0.00,,,0.00,LWC V1.12 B30,2013-02-21 15:42:00,
2013-02-21 07:47:00,31.3,26.7,29.93,SSE,157,4.9,9.6,83,0.00,,,0.00,LWC V1.12 B30,2013-02-21 15:47:00,
2013-02-21 07:52:00,31.6,27.1,29.94,SE,135,6.7,6.7,83,0.00,,,0.00,LWC V1.12 B30,2013-02-21 15:52:00,
2013-02-21 07:57:00,31.8,27.3,29.94,South,180,5.4,15.2,83,0.00,,,0.00,LWC V1.12 B30,2013-02-21 15:57:00,
2013-02-21 08:02:00,32.2,27.6,29.94,SE,135,8.5,28.4,83,0.00,,,0.00,LWC V1.12 B30,2013-02-21 16:02:00,
2013-02-21 08:07:00,32.5,28.0,29.94,SE,135,11.2,11.2,83,0.00,,,0.00,LWC V1.12 B30,2013-02-21 16:07:00,
2013-02-21 08:12:00,32.7,27.8,29.94,South,180,3.8,14.3,82,0.00,,,0.00,LWC V1.12 B30,2013-02-21 16:12:00,
2013-02-21 08:17:00,32.9,28.0,29.94,SSE,157,8.5,13.0,82,0.00,,,0.00,LWC V1.12 B30,2013-02-21 16:17:00,
2013-02-21 08:22:00,33.1,28.1,29.94,SSE,157,10.3,17.2,82,0.00,,,0.00,LWC V1.12 B30,2013-02-21 16:22:00,
2013-02-21 08:27:00,33.1,28.1,29.94,South,180,6.5,6.7,82,0.00,,,0.00,LWC V1.12 B30,2013-02-21 16:27:00,
2013-02-21 08:32:00,33.1,28.1,29.94,SSE,157,3.8,12.7,82,0.00,,,0.00,LWC V1.12 B30,2013-02-21 16:32:00,
2013-02-21 08:37:00,33.1,28.1,29.94,SSW,202,4.7,8.1,82,0.00,,,0.00,LWC V1.12 B30,2013-02-21 16:37:00,
2013-02-21 08:43:00,33.1,28.1,29.94,SSE,157,8.1,11.9,82,0.00,,,0.00,LWC V1.12 B30,2013-02-21 16:43:00,
2013-02-21 08:48:00,33.3,28.3,29.93,SSE,157,4.7,9.6,82,0.00,,,0.00,LWC V1.12 B30,2013-02-21 16:48:00,
2013-02-21 08:53:00,33.6,28.6,29.94,South,180,3.8,4.9,82,0.00,,,0.00,LWC V1.12 B30,2013-02-21 16:53:00,
2013-02-21 08:58:00,33.6,28.6,29.93,South,180,4.0,10.3,82,0.00,,,0.00,LWC V1.12 B30,2013-02-21 16:58:00,
2013-02-21 09:03:00,34.0,29.0,29.93,SSE,157,8.9,14.1,82,0.00,,,0.00,LWC V1.12 B30,2013-02-21 17:03:00,
2013-02-21 09:08:00,34.0,28.7,29.93,SSE,157,9.6,10.1,81,0.00,,,0.00,LWC V1.12 B30,2013-02-21 17:08:00,
2013-02-21 09:13:00,34.2,28.9,29.93,South,180,11.4,11.4,81,0.00,,,0.00,LWC V1.12 B30,2013-02-21 17:13:00,
2013-02-21 09:19:00,34.3,29.0,29.93,SSE,157,3.6,11.6,81,0.00,,,0.00,LWC V1.12 B30,2013-02-21 17:19:00,
2013-02-21 09:24:00,34.7,29.4,29.93,SE,135,9.6,10.3,81,0.00,,,0.00,LWC V1.12 B30,2013-02-21 17:24:00,
2013-02-21 09:29:00,34.9,29.6,29.93,SE,135,12.1,13.6,81,0.00,,,0.00,LWC V1.12 B30,2013-02-21 17:29:00,
2013-02-21 09:34:00,35.2,29.9,29.93,South,180,1.6,8.7,81,0.00,,,0.00,LWC V1.12 B30,2013-02-21 17:34:00,
2013-02-21 09:39:00,35.4,30.1,29.92,SSE,157,8.5,11.0,81,0.00,,,0.00,LWC V1.12 B30,2013-02-21 17:39:00,
2013-02-21 09:44:00,35.8,30.5,29.92,SSE,157,2.2,15.0,81,0.00,,,0.00,LWC V1.12 B30,2013-02-21 17:44:00,
2013-02-21 09:49:00,36.1,30.8,29.92,South,180,9.2,10.3,81,0.00,,,0.00,LWC V1.12 B30,2013-02-21 17:49:00,
2013-02-21 09:54:00,36.3,30.7,29.92,SSW,202,8.3,11.6,80,0.00,,,0.00,LWC V1.12 B30,2013-02-21 17:54:00,
2013-02-21 09:59:00,36.3,30.7,29.92,SSE,157,13.0,13.0,80,0.00,,,0.00,LWC V1.12 B30,2013-02-21 17:59:00,
2013-02-21 10:04:00,36.1,30.6,29.92,SSE,157,8.1,10.5,80,0.00,,,0.00,LWC V1.12 B30,2013-02-21 18:04:00,
2013-02-21 10:09:00,36.1,30.6,29.92,SSE,157,7.4,8.1,80,0.00,,,0.00,LWC V1.12 B30,2013-02-21 18:09:00,
2013-02-21 10:14:00,36.1,30.6,29.91,SSE,157,3.1,10.5,80,0.00,,,0.00,LWC V1.12 B30,2013-02-21 18:14:00,
2013-02-21 10:19:00,36.0,30.4,29.91,SSE,157,7.6,11.6,80,0.00,,,0.00,LWC V1.12 B30,2013-02-21 18:19:00,
2013-02-21 10:24:00,36.0,30.4,29.91,South,180,5.1,9.8,80,0.00,,,0.00,LWC V1.12 B30,2013-02-21 18:24:00,
2013-02-21 10:29:00,36.0,30.4,29.91,South,180,0.0,4.5,80,0.00,,,0.00,LWC V1.12 B30,2013-02-21 18:29:00,
2013-02-21 10:34:00,36.0,30.4,29.91,SSW,202,4.9,8.5,80,0.00,,,0.00,LWC V1.12 B30,2013-02-21 18:34:00,
2013-02-21 10:39:00,36.1,30.6,29.91,South,180,4.9,4.9,80,0.00,,,0.00,LWC V1.12 B30,2013-02-21 18:39:00,
2013-02-21 10:44:00,36.3,30.7,29.91,SSW,202,0.0,6.3,80,0.00,,,0.00,LWC V1.12 B30,2013-02-21 18:44:00,
2013-02-21 10:49:00,36.3,30.7,29.91,South,180,3.6,4.5,80,0.00,,,0.00,LWC V1.12 B30,2013-02-21 18:49:00,
2013-02-21 10:54:00,36.3,30.7,29.91,SSE,157,7.8,8.7,80,0.00,,,0.00,LWC V1.12 B30,2013-02-21 18:54:00,
2013-02-21 10:59:00,36.3,30.4,29.91,SSE,157,3.8,10.5,79,0.00,,,0.00,LWC V1.12 B30,2013-02-21 18:59:00,
2013-02-21 11:04:00,36.3,30.7,29.91,SSW,202,5.8,7.4,80,0.00,,,0.00,LWC V1.12 B30,2013-02-21 19:04:00,
2013-02-21 11:09:00,36.3,30.7,29.92,South,180,3.1,13.4,80,0.00,,,0.00,LWC V1.12 B30,2013-02-21 19:09:00,
2013-02-21 11:14:00,36.1,30.6,29.92,SSE,157,8.7,14.1,80,0.00,,,0.00,LWC V1.12 B30,2013-02-21 19:14:00,
2013-02-21 11:20:00,36.1,30.2,29.92,SSW,202,7.2,71.3,79,0.00,,,0.00,LWC V1.12 B30,2013-02-21 19:20:00,
2013-02-21 11:25:00,36.1,30.6,29.92,South,180,8.1,13.0,80,0.00,,,0.00,LWC V1.12 B30,2013-02-21 19:25:00,
2013-02-21 11:30:00,36.1,30.6,29.92,South,180,5.8,10.1,80,0.00,,,0.00,LWC V1.12 B30,2013-02-21 19:30:00,
2013-02-21 11:35:00,36.0,30.7,29.92,South,180,5.8,9.6,81,0.00,,,0.00,LWC V1.12 B30,2013-02-21 19:35:00,
2013-02-21 11:40:00,35.8,30.5,29.92,South,180,8.3,9.6,81,0.00,,,0.00,LWC V1.12 B30,2013-02-21 19:40:00,
2013-02-21 11:45:00,35.8,30.5,29.92,SE,135,4.9,10.7,81,0.00,,,0.00,LWC V1.12 B30,2013-02-21 19:45:00,
2013-02-21 11:50:00,35.8,30.8,29.92,SE,135,8.5,8.5,82,0.00,,,0.00,LWC V1.12 B30,2013-02-21 19:50:00,
2013-02-21 11:55:00,35.4,30.4,29.92,South,180,3.6,6.3,82,0.00,,,0.00,LWC V1.12 B30,2013-02-21 19:55:00,
2013-02-21 12:00:00,35.4,30.4,29.91,South,180,1.6,5.4,82,0.00,,,0.00,LWC V1.12 B30,2013-02-21 20:00:00,
2013-02-21 12:05:00,35.4,30.7,29.91,South,180,2.5,10.5,83,0.00,,,0.00,LWC V1.12 B30,2013-02-21 20:05:00,
2013-02-21 12:10:00,35.2,30.5,29.91,SE,135,3.1,8.3,83,0.00,,,0.00,LWC V1.12 B30,2013-02-21 20:10:00,
2013-02-21 12:15:00,35.2,30.5,29.91,SSE,157,0.9,4.7,83,0.00,,,0.00,LWC V1.12 B30,2013-02-21 20:15:00,
2013-02-21 12:20:00,35.2,30.8,29.91,South,180,6.7,9.8,84,0.00,,,0.00,LWC V1.12 B30,2013-02-21 20:20:00,
2013-02-21 12:25:00,35.2,30.8,29.91,SSW,202,3.6,9.6,84,0.00,,,0.00,LWC V1.12 B30,2013-02-21 20:25:00,
2013-02-21 12:30:00,35.2,30.8,29.91,South,180,2.5,10.5,84,0.00,,,0.00,LWC V1.12 B30,2013-02-21 20:30:00,
2013-02-21 12:35:00,35.2,30.8,29.91,SSE,157,7.4,7.4,84,0.00,,,0.00,LWC V1.12 B30,2013-02-21 20:35:00,
2013-02-21 12:40:00,35.4,31.3,29.91,South,180,2.7,9.2,85,0.00,,,0.00,LWC V1.12 B30,2013-02-21 20:40:00,
2013-02-21 12:45:00,35.2,31.1,29.91,South,180,4.0,6.3,85,0.00,,,0.00,LWC V1.12 B30,2013-02-21 20:45:00,
2013-02-21 12:51:00,35.2,31.1,29.91,SSE,157,5.4,8.9,85,0.00,,,0.00,LWC V1.12 B30,2013-02-21 20:51:00,
2013-02-21 12:56:00,35.2,31.1,29.91,South,180,4.5,6.0,85,0.00,,,0.00,LWC V1.12 B30,2013-02-21 20:56:00,
2013-02-21 13:01:00,35.2,31.1,29.91,SSW,202,11.6,11.6,85,0.00,,,0.00,LWC V1.12 B30,2013-02-21 21:01:00,
2013-02-21 13:06:00,35.2,30.9,29.90,South,180,4.9,9.6,85,0.00,,,0.00,LWC V1.12 B30,2013-02-21 21:06:00,
2013-02-21 13:11:00,35.1,30.9,29.90,SSE,157,6.3,6.3,85,0.00,,,0.00,LWC V1.12 B30,2013-02-21 21:11:00,
2013-02-21 13:16:00,35.1,30.9,29.91,South,180,2.9,4.9,85,0.00,,,0.00,LWC V1.12 B30,2013-02-21 21:16:00,
2013-02-21 13:21:00,34.9,30.7,29.90,South,180,4.9,6.7,85,0.00,,,0.00,LWC V1.12 B30,2013-02-21 21:21:00,
2013-02-21 13:26:00,34.9,30.7,29.91,SSE,157,2.0,2.2,85,0.00,,,0.00,LWC V1.12 B30,2013-02-21 21:26:00,
2013-02-21 13:31:00,34.9,30.7,29.90,South,180,5.4,5.6,85,0.00,,,0.00,LWC V1.12 B30,2013-02-21 21:31:00,
2013-02-21 13:36:00,34.9,30.7,29.91,SE,135,0.0,4.0,85,0.00,,,0.00,LWC V1.12 B30,2013-02-21 21:36:00,
2013-02-21 13:41:00,34.7,30.6,29.91,South,180,3.1,3.1,85,0.00,,,0.00,LWC V1.12 B30,2013-02-21 21:41:00,
2013-02-21 13:46:00,34.7,30.6,29.90,South,180,5.4,8.7,85,0.00,,,0.00,LWC V1.12 B30,2013-02-21 21:46:00,
2013-02-21 13:51:00,34.5,30.6,29.90,South,180,2.5,5.4,85,0.00,,,0.00,LWC V1.12 B30,2013-02-21 21:51:00,
2013-02-21 13:56:00,34.7,30.8,29.91,South,180,5.1,7.4,86,0.00,,,0.00,LWC V1.12 B30,2013-02-21 21:56:00,
2013-02-21 14:02:00,34.5,30.7,29.91,SSW,202,0.9,6.5,86,0.00,,,0.00,LWC V1.12 B30,2013-02-21 22:02:00,
2013-02-21 14:07:00,34.5,30.7,29.91,SSE,157,2.2,6.5,86,0.00,,,0.00,LWC V1.12 B30,2013-02-21 22:07:00,
2013-02-21 14:12:00,34.7,30.8,29.91,SSE,157,0.0,4.7,86,0.00,,,0.00,LWC V1.12 B30,2013-02-21 22:12:00,
2013-02-21 14:17:00,34.9,31.0,29.91,SSE,157,2.5,4.0,86,0.00,,,0.00,LWC V1.12 B30,2013-02-21 22:17:00,
2013-02-21 14:22:00,34.9,31.0,29.91,South,180,2.9,5.1,86,0.00,,,0.00,LWC V1.12 B30,2013-02-21 22:22:00,
2013-02-21 14:27:00,35.2,31.4,29.91,SE,135,11.9,13.0,86,0.00,,,0.00,LWC V1.12 B30,2013-02-21 22:27:00,
2013-02-21 14:32:00,35.2,31.4,29.91,SSE,157,7.4,7.4,86,0.00,,,0.00,LWC V1.12 B30,2013-02-21 22:32:00,
2013-02-21 14:37:00,35.4,31.6,29.91,South,180,0.0,7.6,86,0.00,,,0.00,LWC V1.12 B30,2013-02-21 22:37:00,
2013-02-21 14:43:00,35.4,31.6,29.91,South,180,1.6,5.4,86,0.00,,,0.00,LWC V1.12 B30,2013-02-21 22:43:00,
2013-02-21 14:48:00,35.8,31.9,29.91,SSW,202,2.9,6.7,86,0.00,,,0.00,LWC V1.12 B30,2013-02-21 22:48:00,
2013-02-21 14:53:00,36.1,32.3,29.91,South,180,1.8,4.9,86,0.00,,,0.00,LWC V1.12 B30,2013-02-21 22:53:00,
2013-02-21 14:58:00,36.3,32.5,29.91,SSE,157,0.0,6.0,86,0.00,,,0.00,LWC V1.12 B30,2013-02-21 22:58:00,
2013-02-21 15:03:00,36.3,32.5,29.90,South,180,0.0,4.5,86,0.00,,,0.00,LWC V1.12 B30,2013-02-21 23:03:00,
2013-02-21 15:08:00,36.5,32.2,29.90,SSW,202,4.7,7.4,85,0.00,,,0.00,LWC V1.12 B30,2013-02-21 23:08:00,
2013-02-21 15:14:00,36.7,32.5,29.90,SSE,157,3.6,5.4,85,0.00,,,0.00,LWC V1.12 B30,2013-02-21 23:14:00,
2013-02-21 15:19:00,36.7,32.5,29.90,SSW,202,4.0,7.2,85,0.00,,,0.00,LWC V1.12 B30,2013-02-21 23:19:00,
2013-02-21 15:24:00,36.9,32.7,29.90,South,180,4.0,5.1,85,0.00,,,0.00,LWC V1.12 B30,2013-02-21 23:24:00,
2013-02-21 15:29:00,37.0,32.9,29.90,South,180,2.5,3.8,85,0.00,,,0.00,LWC V1.12 B30,2013-02-21 23:29:00,
2013-02-21 15:34:00,37.2,33.1,29.90,SSE,157,3.1,8.5,85,0.00,,,0.00,LWC V1.12 B30,2013-02-21 23:34:00,
2013-02-21 15:40:00,37.2,33.1,29.91,South,180,5.1,9.8,85,0.00,,,0.00,LWC V1.12 B30,2013-02-21 23:40:00,
2013-02-21 15:45:00,37.2,32.8,29.91,South,180,0.0,5.1,84,0.00,,,0.00,LWC V1.12 B30,2013-02-21 23:45:00,
2013-02-21 15:51:00,37.0,32.6,29.91,SW,225,4.0,9.6,84,0.00,,,0.00,LWC V1.12 B30,2013-02-21 23:51:00,
2013-02-21 15:56:00,37.0,32.9,29.91,SSW,202,0.0,1.6,85,0.00,,,0.00,LWC V1.12 B30,2013-02-21 23:56:00,
2013-02-21 16:01:00,37.0,32.9,29.91,SSE,157,3.1,5.4,85,0.00,,,0.00,LWC V1.12 B30,2013-02-22 00:01:00,
2013-02-21 16:07:00,37.0,32.9,29.91,South,180,5.6,7.6,85,0.00,,,0.00,LWC V1.12 B30,2013-02-22 00:07:00,
2013-02-21 16:12:00,37.2,33.1,29.90,South,180,0.0,7.2,85,0.00,,,0.00,LWC V1.12 B30,2013-02-22 00:12:00,
2013-02-21 16:17:00,37.2,33.1,29.91,SSE,157,1.3,3.6,85,0.00,,,0.00,LWC V1.12 B30,2013-02-22 00:17:00,
2013-02-21 16:22:00,37.2,33.1,29.91,East,90,0.0,0.0,85,0.00,,,0.00,LWC V1.12 B30,2013-02-22 00:22:00,
2013-02-21 16:27:00,37.2,33.1,29.91,SSE,157,1.8,3.6,85,0.00,,,0.00,LWC V1.12 B30,2013-02-22 00:27:00,
2013-02-21 16:32:00,37.2,32.8,29.91,SE,135,0.0,3.6,84,0.00,,,0.00,LWC V1.12 B30,2013-02-22 00:32:00,
2013-02-21 16:37:00,37.4,33.3,29.91,SE,135,2.0,5.1,85,0.00,,,0.00,LWC V1.12 B30,2013-02-22 00:37:00,
2013-02-21 16:42:00,37.6,33.2,29.91,SSE,157,0.0,1.3,84,0.00,,,0.00,LWC V1.12 B30,2013-02-22 00:42:00,
2013-02-21 16:47:00,37.6,33.2,29.90,SE,135,0.0,1.6,84,0.00,,,0.00,LWC V1.12 B30,2013-02-22 00:47:00,
2013-02-21 16:52:00,37.4,33.0,29.90,SSE,157,0.0,2.0,84,0.00,,,0.00,LWC V1.12 B30,2013-02-22 00:52:00,
2013-02-21 16:57:00,37.2,32.8,29.91,SSW,202,1.3,2.7,84,0.00,,,0.00,LWC V1.12 B30,2013-02-22 00:57:00,
2013-02-21 17:02:00,37.2,32.8,29.91,SSE,157,0.0,1.3,84,0.00,,,0.00,LWC V1.12 B30,2013-02-22 01:02:00,
2013-02-21 17:07:00,37.0,32.6,29.91,South,180,3.6,3.6,84,0.00,,,0.00,LWC V1.12 B30,2013-02-22 01:07:00,
2013-02-21 17:12:00,36.9,32.4,29.91,SSE,157,0.0,2.2,84,0.00,,,0.00,LWC V1.12 B30,2013-02-22 01:12:00,
2013-02-21 17:17:00,36.7,32.3,29.91,South,180,0.7,0.7,84,0.00,,,0.00,LWC V1.12 B30,2013-02-22 01:17:00,
2013-02-21 17:22:00,36.3,31.9,29.91,SE,135,1.6,3.4,84,0.00,,,0.00,LWC V1.12 B30,2013-02-22 01:22:00,
2013-02-21 17:27:00,36.3,31.9,29.90,SSE,157,2.9,2.9,84,0.00,,,0.00,LWC V1.12 B30,2013-02-22 01:27:00,
2013-02-21 17:32:00,36.0,31.5,29.91,SSE,157,1.8,3.8,84,0.00,,,0.00,LWC V1.12 B30,2013-02-22 01:32:00,
2013-02-21 17:37:00,35.8,31.4,29.91,SE,135,3.4,3.6,84,0.00,,,0.00,LWC V1.12 B30,2013-02-22 01:37:00,
2013-02-21 17:42:00,35.6,31.2,29.91,ESE,112,4.9,8.1,84,0.00,,,0.00,LWC V1.12 B30,2013-02-22 01:42:00,
2013-02-21 17:47:00,35.4,31.0,29.91,South,180,3.4,5.4,84,0.00,,,0.00,LWC V1.12 B30,2013-02-22 01:47:00,
2013-02-21 17:52:00,35.2,30.8,29.90,SE,135,4.5,6.3,84,0.00,,,0.00,LWC V1.12 B30,2013-02-22 01:52:00,
2013-02-21 17:57:00,35.2,30.8,29.90,SSE,157,4.7,8.7,84,0.00,,,0.00,LWC V1.12 B30,2013-02-22 01:57:00,
2013-02-21 18:02:00,35.1,30.6,29.90,SSE,157,2.5,4.7,84,0.00,,,0.00,LWC V1.12 B30,2013-02-22 02:02:00,
2013-02-21 18:08:00,34.9,30.7,29.91,SSE,157,6.5,6.5,85,0.00,,,0.00,LWC V1.12 B30,2013-02-22 02:08:00,
2013-02-21 18:13:00,34.9,30.7,29.91,SSE,157,2.5,6.5,85,0.00,,,0.00,LWC V1.12 B30,2013-02-22 02:13:00,
2013-02-21 18:18:00,34.7,30.6,29.91,South,180,4.7,8.1,85,0.00,,,0.00,LWC V1.12 B30,2013-02-22 02:18:00,
2013-02-21 18:23:00,34.5,30.4,29.91,South,180,3.6,9.4,85,0.00,,,0.00,LWC V1.12 B30,2013-02-22 02:23:00,
2013-02-21 18:28:00,34.3,30.2,29.91,SSE,157,10.7,10.7,85,0.00,,,0.00,LWC V1.12 B30,2013-02-22 02:28:00,
2013-02-21 18:33:00,34.3,30.2,29.91,SSE,157,5.4,6.9,85,0.00,,,0.00,LWC V1.12 B30,2013-02-22 02:33:00,
2013-02-21 18:38:00,34.3,30.2,29.91,SE,135,5.8,8.5,85,0.00,,,0.00,LWC V1.12 B30,2013-02-22 02:38:00,
2013-02-21 18:43:00,34.3,30.2,29.91,South,180,4.5,6.3,85,0.00,,,0.00,LWC V1.12 B30,2013-02-22 02:43:00,
2013-02-21 18:48:00,34.3,30.2,29.91,SE,135,8.5,8.5,85,0.00,,,0.00,LWC V1.12 B30,2013-02-22 02:48:00,
2013-02-21 18:53:00,34.3,30.2,29.91,SSE,157,3.1,5.8,85,0.00,,,0.00,LWC V1.12 B30,2013-02-22 02:53:00,
2013-02-21 18:58:00,34.3,30.2,29.91,SE,135,6.7,10.5,85,0.00,,,0.00,LWC V1.12 B30,2013-02-22 02:58:00,
2013-02-21 19:03:00,34.3,30.2,29.92,SE,135,4.0,10.5,85,0.00,,,0.00,LWC V1.12 B30,2013-02-22 03:03:00,
2013-02-21 19:08:00,34.3,30.2,29.92,SSE,157,6.0,8.3,85,0.00,,,0.00,LWC V1.12 B30,2013-02-22 03:08:00,
2013-02-21 19:13:00,34.3,30.2,29.92,SSE,157,10.7,10.7,85,0.00,,,0.00,LWC V1.12 B30,2013-02-22 03:13:00,
2013-02-21 19:18:00,34.3,30.2,29.92,SE,135,4.9,7.6,85,0.00,,,0.00,LWC V1.12 B30,2013-02-22 03:18:00,
2013-02-21 19:23:00,34.3,30.2,29.91,SSW,202,6.3,9.8,85,0.00,,,0.00,LWC V1.12 B30,2013-02-22 03:23:00,
2013-02-21 19:28:00,34.2,30.0,29.91,South,180,5.6,12.1,85,0.00,,,0.00,LWC V1.12 B30,2013-02-22 03:28:00,
2013-02-21 19:33:00,34.2,30.0,29.91,SE,135,6.9,11.2,85,0.00,,,0.00,LWC V1.12 B30,2013-02-22 03:33:00,
2013-02-21 19:38:00,34.2,30.0,29.91,South,180,10.1,13.2,85,0.00,,,0.00,LWC V1.12 B30,2013-02-22 03:38:00,
2013-02-21 19:44:00,34.0,29.8,29.91,SE,135,8.9,10.1,85,0.00,,,0.00,LWC V1.12 B30,2013-02-22 03:44:00,
2013-02-21 19:49:00,34.0,29.8,29.91,SE,135,6.3,14.1,85,0.00,,,0.00,LWC V1.12 B30,2013-02-22 03:49:00,
2013-02-21 19:54:00,34.2,30.0,29.91,SSE,157,7.8,13.2,85,0.00,,,0.00,LWC V1.12 B30,2013-02-22 03:54:00,
2013-02-21 19:59:00,34.0,29.8,29.91,South,180,9.2,9.2,85,0.00,,,0.00,LWC V1.12 B30,2013-02-22 03:59:00,
2013-02-21 20:04:00,34.2,30.0,29.91,SE,135,10.3,11.6,85,0.00,,,0.00,LWC V1.12 B30,2013-02-22 04:04:00,
2013-02-21 20:09:00,34.2,30.0,29.91,SE,135,10.7,14.8,85,0.00,,,0.00,LWC V1.12 B30,2013-02-22 04:09:00,
2013-02-21 20:14:00,34.2,30.0,29.90,SSE,157,8.9,8.9,85,0.00,,,0.00,LWC V1.12 B30,2013-02-22 04:14:00,
2013-02-21 20:19:00,34.2,30.0,29.90,SE,135,16.3,16.3,85,0.00,,,0.00,LWC V1.12 B30,2013-02-22 04:19:00,
2013-02-21 20:25:00,34.2,30.0,29.90,South,180,11.9,11.9,85,0.00,,,0.00,LWC V1.12 B30,2013-02-22 04:25:00,
2013-02-21 20:30:00,34.2,30.0,29.91,SSE,157,8.9,14.1,85,0.00,,,0.00,LWC V1.12 B30,2013-02-22 04:30:00,
2013-02-21 20:35:00,34.2,30.0,29.91,SSE,157,7.8,14.1,85,0.00,,,0.00,LWC V1.12 B30,2013-02-22 04:35:00,
2013-02-21 20:40:00,34.2,30.0,29.91,South,180,10.1,11.9,85,0.00,,,0.00,LWC V1.12 B30,2013-02-22 04:40:00,
2013-02-21 20:45:00,34.0,29.8,29.91,SSW,202,8.9,15.0,85,0.00,,,0.00,LWC V1.12 B30,2013-02-22 04:45:00,
2013-02-21 20:50:00,34.0,29.8,29.91,South,180,11.2,12.5,85,0.00,,,0.00,LWC V1.12 B30,2013-02-22 04:50:00,
2013-02-21 20:55:00,34.0,29.8,29.91,SE,135,10.5,17.2,85,0.00,,,0.00,LWC V1.12 B30,2013-02-22 04:55:00,
2013-02-21 21:00:00,34.0,29.8,29.91,SSE,157,9.8,9.8,85,0.00,,,0.00,LWC V1.12 B30,2013-02-22 05:00:00,
2013-02-21 21:04:00,34.0,29.8,29.91,South,180,10.1,13.6,85,0.00,,,0.00,LWC V1.12 B30,2013-02-22 05:04:00,
2013-02-21 21:09:00,34.0,29.8,29.91,SSE,157,10.5,13.0,85,0.00,,,0.00,LWC V1.12 B30,2013-02-22 05:09:00,
2013-02-21 21:12:00,34.0,29.8,29.91,ESE,112,11.9,13.4,85,0.00,,,0.00,LWC V1.12 B30,2013-02-22 05:12:00,
2013-02-21 21:17:00,34.0,29.8,29.91,ESE,112,11.9,19.5,85,0.00,,,0.00,LWC V1.12 B30,2013-02-22 05:17:00,
2013-02-21 21:22:00,34.0,29.8,29.92,SSE,157,6.9,13.2,85,0.00,,,0.00,LWC V1.12 B30,2013-02-22 05:22:00,
2013-02-21 21:27:00,34.0,29.8,29.92,South,180,7.6,14.3,85,0.00,,,0.00,LWC V1.12 B30,2013-02-22 05:27:00,
2013-02-21 21:32:00,34.0,29.8,29.92,SSE,157,6.9,11.2,85,0.00,,,0.00,LWC V1.12 B30,2013-02-22 05:32:00,
2013-02-21 21:37:00,34.0,29.8,29.91,SSE,157,4.7,13.2,85,0.00,,,0.00,LWC V1.12 B30,2013-02-22 05:37:00,
2013-02-21 21:42:00,34.0,29.8,29.91,South,180,8.5,12.7,85,0.00,,,0.00,LWC V1.12 B30,2013-02-22 05:42:00,
2013-02-21 21:47:00,34.0,29.8,29.91,South,180,6.0,11.2,85,0.00,,,0.00,LWC V1.12 B30,2013-02-22 05:47:00,
2013-02-21 21:52:00,34.0,29.8,29.91,SSE,157,6.0,9.8,85,0.00,,,0.00,LWC V1.12 B30,2013-02-22 05:52:00,
2013-02-21 21:57:00,34.0,29.8,29.92,SSE,157,8.9,12.7,85,0.00,,,0.00,LWC V1.12 B30,2013-02-22 05:57:00,
2013-02-21 22:02:00,34.0,29.8,29.92,SSE,157,7.6,7.6,85,0.00,,,0.00,LWC V1.12 B30,2013-02-22 06:02:00,
2013-02-21 22:07:00,34.2,30.0,29.92,South,180,6.9,9.8,85,0.00,,,0.00,LWC V1.12 B30,2013-02-22 06:07:00,
2013-02-21 22:12:00,34.2,30.0,29.92,SSE,157,7.8,10.5,85,0.00,,,0.00,LWC V1.12 B30,2013-02-22 06:12:00,
2013-02-21 22:17:00,34.2,30.0,29.92,SE,135,11.9,11.9,85,0.00,,,0.00,LWC V1.12 B30,2013-02-22 06:17:00,
2013-02-21 22:23:00,34.2,30.0,29.92,South,180,7.6,12.7,85,0.00,,,0.00,LWC V1.12 B30,2013-02-22 06:23:00,
2013-02-21 22:28:00,34.2,30.0,29.91,South,180,11.2,15.0,85,0.00,,,0.00,LWC V1.12 B30,2013-02-22 06:28:00,
2013-02-21 22:33:00,34.3,30.2,29.92,SSE,157,7.8,12.1,85,0.00,,,0.00,LWC V1.12 B30,2013-02-22 06:33:00,
2013-02-21 22:38:00,34.3,30.2,29.92,SSE,157,9.6,10.1,85,0.00,,,0.00,LWC V1.12 B30,2013-02-22 06:38:00,
2013-02-21 22:43:00,34.3,30.2,29.91,SE,135,17.4,17.4,85,0.00,,,0.00,LWC V1.12 B30,2013-02-22 06:43:00,
2013-02-21 22:48:00,34.3,30.2,29.92,South,180,12.3,13.6,85,0.00,,,0.00,LWC V1.12 B30,2013-02-22 06:48:00,
2013-02-21 22:53:00,34.3,30.2,29.92,SE,135,11.4,13.6,85,0.00,,,0.00,LWC V1.12 B30,2013-02-22 06:53:00,
2013-02-21 22:58:00,34.3,30.2,29.92,SSE,157,14.1,14.1,85,0.00,,,0.00,LWC V1.12 B30,2013-02-22 06:58:00,
2013-02-21 23:03:00,34.3,30.2,29.91,SE,135,12.7,12.7,85,0.00,,,0.00,LWC V1.12 B30,2013-02-22 07:03:00,
2013-02-21 23:08:00,34.3,30.2,29.91,SE,135,8.5,13.0,85,0.00,,,0.00,LWC V1.12 B30,2013-02-22 07:08:00,
2013-02-21 23:13:00,34.2,30.0,29.91,South,180,10.3,10.3,85,0.00,,,0.00,LWC V1.12 B30,2013-02-22 07:13:00,
2013-02-21 23:18:00,34.2,30.0,29.91,SE,135,8.1,15.0,85,0.00,,,0.00,LWC V1.12 B30,2013-02-22 07:18:00,
2013-02-21 23:23:00,34.2,30.0,29.91,SSE,157,6.9,12.3,85,0.00,,,0.00,LWC V1.12 B30,2013-02-22 07:23:00,
2013-02-21 23:28:00,34.2,30.0,29.91,South,180,9.6,10.1,85,0.00,,,0.00,LWC V1.12 B30,2013-02-22 07:28:00,
2013-02-21 23:33:00,34.0,29.8,29.90,SE,135,8.3,14.5,85,0.00,,,0.00,LWC V1.12 B30,2013-02-22 07:33:00,
2013-02-21 23:38:00,34.0,29.8,29.90,SE,135,20.1,20.1,85,0.00,,,0.00,LWC V1.12 B30,2013-02-22 07:38:00,
2013-02-21 23:43:00,33.6,29.5,29.90,South,180,11.9,13.4,85,0.00,,,0.00,LWC V1.12 B30,2013-02-22 07:43:00,
2013-02-21 23:49:00,33.6,29.5,29.89,SSE,157,13.0,13.6,85,0.00,,,0.00,LWC V1.12 B30,2013-02-22 07:49:00,
2013-02-21 23:54:00,33.6,29.5,29.90,SSE,157,8.7,15.0,85,0.00,,,0.00,LWC V1.12 B30,2013-02-22 07:54:00,
2013-02-21 23:59:00,33.4,29.3,29.89,South,180,8.9,12.3,85,0.00,,,0.00,LWC V1.12 B30,2013-02-22 07:59:00,